Time;durP1;ratioP1;P1;durP2;ratioP2;P2;SDS_P1;SDS_P2;PMS_P1;PMS_P2;Temp;Humidity;BMP_temperature;BMP_pressure;BME280_temperature;BME280_humidity;BME280_pressure;Samples;Min_cycle;Max_cycle;Signal;HPM_P1;HPM_P2
2023/06/09 00:00:18;;;;;;;7.63;6.80;;;20.90;1.00;;;;;;5094615;28;20469;-67
2023/06/09 00:02:47;;;;;;;9.63;6.40;;;20.90;1.00;;;;;;5094753;28;20453;-67
2023/06/09 00:05:15;;;;;;;7.00;6.30;;;20.80;1.00;;;;;;5094336;28;20481;-67
2023/06/09 00:07:43;;;;;;;8.03;7.10;;;20.80;1.00;;;;;;5094985;28;20457;-67
2023/06/09 00:10:10;;;;;;;7.03;6.33;;;20.80;1.00;;;;;;5094608;28;20503;-67
2023/06/09 00:12:37;;;;;;;7.43;6.17;;;20.80;1.00;;;;;;5094320;28;20489;-67
2023/06/09 00:15:05;;;;;;;7.40;6.70;;;20.70;1.00;;;;;;5094708;28;20445;-67
2023/06/09 00:17:32;;;;;;;8.57;7.70;;;20.70;1.00;;;;;;5094595;28;20551;-66
2023/06/09 00:20:03;;;;;;;15.00;6.80;;;20.60;1.00;;;;;;5094652;28;20540;-66
2023/06/09 00:22:31;;;;;;;11.93;6.17;;;20.60;1.00;;;;;;5094757;28;20452;-66
2023/06/09 00:24:59;;;;;;;9.70;7.43;;;20.60;1.00;;;;;;5094184;28;20484;-66
2023/06/09 00:27:26;;;;;;;6.77;6.17;;;20.50;1.00;;;;;;5094080;28;20453;-67
2023/06/09 00:29:53;;;;;;;8.90;6.93;;;20.50;1.00;;;;;;5094472;28;20553;-67
2023/06/09 00:32:21;;;;;;;7.33;6.60;;;20.40;1.00;;;;;;5094373;28;20937;-67
2023/06/09 00:34:49;;;;;;;16.60;7.00;;;20.40;1.00;;;;;;5094045;28;20455;-66
2023/06/09 00:37:16;;;;;;;7.77;6.50;;;20.40;1.00;;;;;;5094327;28;20458;-66
2023/06/09 00:39:42;;;;;;;7.60;6.57;;;20.30;1.00;;;;;;5095333;28;20565;-67
2023/06/09 00:42:11;;;;;;;9.90;6.40;;;20.30;1.00;;;;;;5094135;28;20985;-67
2023/06/09 00:44:38;;;;;;;8.77;7.07;;;20.30;1.00;;;;;;5094414;28;20473;-65
2023/06/09 00:47:06;;;;;;;11.13;7.27;;;20.30;1.00;;;;;;5094616;28;20522;-66
2023/06/09 00:49:33;;;;;;;9.30;6.67;;;20.20;1.00;;;;;;5094231;28;20464;-66
2023/06/09 00:52:01;;;;;;;9.80;6.90;;;20.20;1.00;;;;;;5094542;28;20467;-66
2023/06/09 00:54:28;;;;;;;7.10;6.20;;;20.20;1.00;;;;;;5094266;28;20464;-67
2023/06/09 00:56:56;;;;;;;7.97;6.70;;;20.10;1.00;;;;;;5094272;28;20785;-66
2023/06/09 00:59:25;;;;;;;12.50;6.87;;;20.10;1.00;;;;;;5094086;28;20781;-66
2023/06/09 01:01:52;;;;;;;10.47;8.00;;;20.00;1.00;;;;;;5094398;28;20457;-67
2023/06/09 01:04:19;;;;;;;8.80;6.90;;;20.00;1.00;;;;;;5094281;28;20544;-67
2023/06/09 01:06:57;;;;;;;9.37;7.53;;;19.90;1.00;;;;;;5094045;28;20531;-67
2023/06/09 01:09:30;;;;;;;11.97;7.43;;;19.90;1.00;;;;;;5094038;28;20909;-67
2023/06/09 01:12:09;;;;;;;12.47;6.87;;;19.80;1.00;;;;;;5094423;28;20797;-67
2023/06/09 01:14:42;;;;;;;10.47;7.33;;;19.80;1.00;;;;;;5094302;28;20434;-67
2023/06/09 01:17:12;;;;;;;8.43;7.37;;;19.80;1.00;;;;;;5094268;28;20448;-67
2023/06/09 01:19:43;;;;;;;8.30;7.20;;;19.70;1.00;;;;;;5094228;28;20449;-67
2023/06/09 01:22:18;;;;;;;11.60;9.07;;;19.70;1.00;;;;;;5093880;28;20499;-67
2023/06/09 01:25:05;;;;;;;9.67;7.90;;;19.60;1.00;;;;;;5095203;28;20522;-67
2023/06/09 01:27:36;;;;;;;8.03;7.23;;;19.60;1.00;;;;;;5097536;28;20456;-67
2023/06/09 01:30:03;;;;;;;8.67;7.87;;;19.60;1.00;;;;;;5098612;28;20776;-67
2023/06/09 01:32:32;;;;;;;7.90;7.10;;;19.50;1.00;;;;;;5099243;28;20544;-67
2023/06/09 01:34:59;;;;;;;8.30;7.10;;;19.50;1.00;;;;;;5097579;28;20453;-67
2023/06/09 01:37:26;;;;;;;10.17;7.20;;;19.50;1.00;;;;;;5097643;28;20535;-67
2023/06/09 01:39:53;;;;;;;8.73;7.43;;;19.50;1.00;;;;;;5097726;28;20841;-67
2023/06/09 01:42:21;;;;;;;10.53;7.90;;;19.40;1.00;;;;;;5098133;28;20461;-67
2023/06/09 01:44:49;;;;;;;8.63;7.70;;;19.40;1.00;;;;;;5097737;28;20495;-67
2023/06/09 01:47:18;;;;;;;8.20;7.40;;;19.40;1.00;;;;;;5097399;28;20564;-67
2023/06/09 01:49:53;;;;;;;13.90;7.73;;;19.40;1.00;;;;;;5097300;28;20518;-67
2023/06/09 01:52:25;;;;;;;8.87;7.13;;;19.30;1.00;;;;;;5097881;28;20480;-67
2023/06/09 01:54:55;;;;;;;8.67;7.70;;;19.30;1.00;;;;;;5097741;28;20438;-67
2023/06/09 01:57:31;;;;;;;9.13;8.10;;;19.20;1.00;;;;;;5097396;28;20468;-67
2023/06/09 02:00:03;;;;;;;10.17;7.83;;;19.10;1.00;;;;;;5097268;28;20446;-67
2023/06/09 02:02:33;;;;;;;9.30;7.80;;;19.10;1.00;;;;;;5097173;28;20450;-67
2023/06/09 02:05:02;;;;;;;10.73;7.90;;;19.00;1.00;;;;;;5096730;28;20489;-67
2023/06/09 02:07:30;;;;;;;8.10;7.30;;;19.00;1.00;;;;;;5096883;28;20493;-67
2023/06/09 02:09:57;;;;;;;8.00;7.20;;;19.00;1.00;;;;;;5096718;28;20481;-67
2023/06/09 02:12:30;;;;;;;9.20;8.13;;;18.90;1.00;;;;;;5096508;28;20996;-67
2023/06/09 02:14:57;;;;;;;10.17;7.90;;;18.90;1.00;;;;;;5096632;28;21094;-67
2023/06/09 02:17:26;;;;;;;11.53;8.17;;;18.90;1.00;;;;;;5096514;28;20540;-67
2023/06/09 02:19:52;;;;;;;11.33;8.07;;;18.80;1.00;;;;;;5096559;28;20914;-67
2023/06/09 02:22:19;;;;;;;8.63;7.83;;;18.80;1.00;;;;;;5096605;28;20773;-67
2023/06/09 02:24:46;;;;;;;8.67;7.77;;;18.80;1.00;;;;;;5096841;28;20564;-67
2023/06/09 02:27:13;;;;;;;10.47;8.90;;;18.80;1.00;;;;;;5096667;28;20798;-67
2023/06/09 02:29:40;;;;;;;13.30;8.27;;;18.70;1.00;;;;;;5096362;28;20932;-67
2023/06/09 02:32:07;;;;;;;12.00;8.50;;;18.70;1.00;;;;;;5096606;28;20779;-67
2023/06/09 02:34:37;;;;;;;10.00;7.87;;;18.70;1.00;;;;;;5096136;28;20804;-67
2023/06/09 02:37:07;;;;;;;13.47;7.97;;;18.70;1.00;;;;;;5095251;28;20483;-67
2023/06/09 02:39:34;;;;;;;8.97;8.07;;;18.70;1.00;;;;;;5096087;28;20457;-67
2023/06/09 02:42:01;;;;;;;9.23;8.13;;;18.60;1.00;;;;;;5095894;28;20941;-67
2023/06/09 02:44:28;;;;;;;9.20;7.73;;;18.60;1.00;;;;;;5096265;28;20825;-67
2023/06/09 02:46:55;;;;;;;8.87;7.60;;;18.60;1.00;;;;;;5096033;28;20477;-67
2023/06/09 02:49:22;;;;;;;12.20;8.40;;;18.60;1.00;;;;;;5096138;28;20454;-67
2023/06/09 02:51:50;;;;;;;12.73;8.73;;;18.60;1.00;;;;;;5096018;28;20548;-65
2023/06/09 02:54:18;;;;;;;9.67;8.17;;;18.50;1.00;;;;;;5096178;28;20836;-67
2023/06/09 02:56:44;;;;;;;9.80;8.30;;;18.50;1.00;;;;;;5095580;28;20460;-67
2023/06/09 02:59:11;;;;;;;9.57;8.10;;;18.50;1.00;;;;;;5095702;28;20489;-67
2023/06/09 03:01:39;;;;;;;16.30;9.40;;;18.50;1.00;;;;;;5095989;28;20467;-67
2023/06/09 03:04:07;;;;;;;13.30;8.47;;;18.40;1.00;;;;;;5095876;28;20457;-67
2023/06/09 03:06:36;;;;;;;11.43;7.90;;;18.40;1.00;;;;;;5095665;28;20489;-67
2023/06/09 03:09:04;;;;;;;11.20;8.03;;;18.40;1.00;;;;;;5095594;28;20544;-65
2023/06/09 03:11:32;;;;;;;10.00;9.00;;;18.30;1.00;;;;;;5095129;28;20543;-67
2023/06/09 03:13:58;;;;;;;8.60;7.70;;;18.30;1.00;;;;;;5095340;28;20918;-67
2023/06/09 03:16:27;;;;;;;9.87;8.17;;;18.30;1.00;;;;;;5095803;28;20548;-65
2023/06/09 03:18:54;;;;;;;9.73;8.73;;;18.20;1.00;;;;;;5095628;28;20453;-65
2023/06/09 03:21:24;;;;;;;12.93;8.10;;;18.20;1.00;;;;;;5095679;28;20488;-65
2023/06/09 03:23:51;;;;;;;11.33;8.30;;;18.20;1.00;;;;;;5095272;28;20933;-65
2023/06/09 03:26:19;;;;;;;8.87;7.80;;;18.10;1.00;;;;;;5095523;28;20558;-65
2023/06/09 03:28:46;;;;;;;9.80;8.50;;;18.10;1.00;;;;;;5095479;28;20953;-65
2023/06/09 03:31:14;;;;;;;10.60;7.70;;;18.10;1.00;;;;;;5095232;28;20504;-66
2023/06/09 03:33:41;;;;;;;9.30;8.30;;;18.10;1.00;;;;;;5095045;28;20453;-66
2023/06/09 03:36:08;;;;;;;11.70;7.80;;;18.10;1.00;;;;;;5095482;28;20902;-66
2023/06/09 03:38:35;;;;;;;9.67;8.27;;;18.00;1.00;;;;;;5095012;28;20464;-66
2023/06/09 03:41:02;;;;;;;8.90;8.00;;;18.00;12.10;;;;;;5095275;28;20850;-66
2023/06/09 03:43:31;;;;;;;11.63;8.47;;;18.00;55.60;;;;;;5095057;28;20780;-66
2023/06/09 03:45:58;;;;;;;11.93;8.20;;;17.90;99.90;;;;;;5094715;28;20542;-66
2023/06/09 03:48:25;;;;;;;12.43;7.73;;;17.90;99.90;;;;;;5094786;28;20777;-65
2023/06/09 03:50:51;;;;;;;10.00;8.30;;;17.90;99.90;;;;;;5095528;28;20913;-65
2023/06/09 03:53:19;;;;;;;12.50;8.50;;;17.80;99.90;;;;;;5094960;28;20476;-66
2023/06/09 03:55:45;;;;;;;9.77;8.50;;;17.80;99.90;;;;;;5094646;28;20489;-65
2023/06/09 03:58:13;;;;;;;11.63;8.73;;;17.80;99.90;;;;;;5094948;28;20540;-67
2023/06/09 04:00:42;;;;;;;14.13;8.60;;;17.80;99.90;;;;;;5094540;28;20769;-67
2023/06/09 04:03:09;;;;;;;10.23;9.10;;;17.80;1.00;;;;;;5094724;28;20483;-67
2023/06/09 04:05:36;;;;;;;8.90;7.70;;;17.80;99.90;;;;;;5094591;28;20588;-67
2023/06/09 04:08:03;;;;;;;8.67;7.43;;;17.90;99.90;;;;;;5094899;28;20564;-67
2023/06/09 04:10:30;;;;;;;9.70;7.83;;;17.90;99.90;;;;;;5094511;28;20453;-67
2023/06/09 04:12:57;;;;;;;9.37;8.43;;;17.90;1.00;;;;;;5094216;28;20493;-67
2023/06/09 04:15:23;;;;;;;11.00;8.17;;;17.90;1.00;;;;;;5094624;28;20475;-67
2023/06/09 04:17:52;;;;;;;9.63;8.63;;;18.00;1.00;;;;;;5094259;28;20570;-65
2023/06/09 04:20:21;;;;;;;11.37;8.90;;;18.00;1.00;;;;;;5094535;28;20840;-67
2023/06/09 04:22:49;;;;;;;10.70;7.57;;;18.00;1.00;;;;;;5094258;28;20450;-67
2023/06/09 04:25:16;;;;;;;7.00;6.30;;;18.10;1.00;;;;;;5094432;28;20556;-67
2023/06/09 04:27:43;;;;;;;8.77;7.33;;;18.10;1.00;;;;;;5094598;28;20454;-67
2023/06/09 04:30:11;;;;;;;8.77;6.50;;;18.10;1.00;;;;;;5094369;28;20453;-67
2023/06/09 04:32:38;;;;;;;8.50;6.00;;;18.20;1.00;;;;;;5094344;28;20460;-67
2023/06/09 04:35:08;;;;;;;15.77;7.00;;;18.20;1.00;;;;;;5094187;28;20489;-65
2023/06/09 04:37:36;;;;;;;9.37;6.77;;;18.20;1.00;;;;;;5094175;28;20476;-65
2023/06/09 04:40:03;;;;;;;10.73;6.50;;;18.20;1.00;;;;;;5093944;28;20906;-67
2023/06/09 04:42:30;;;;;;;7.60;6.27;;;18.20;1.00;;;;;;5094230;28;20460;-67
2023/06/09 04:44:57;;;;;;;8.50;7.00;;;18.30;1.00;;;;;;5094189;28;20477;-67
2023/06/09 04:47:25;;;;;;;9.60;6.50;;;18.30;1.00;;;;;;5093841;28;20980;-67
2023/06/09 04:49:53;;;;;;;7.60;6.53;;;18.30;1.00;;;;;;5094211;28;20453;-67
2023/06/09 04:52:21;;;;;;;6.97;6.27;;;18.30;1.00;;;;;;5094049;28;20456;-67
2023/06/09 04:54:49;;;;;;;7.33;5.97;;;18.40;1.00;;;;;;5093711;28;20691;-67
2023/06/09 04:57:18;;;;;;;9.33;6.23;;;18.40;1.00;;;;;;5094255;28;20479;-67
2023/06/09 04:59:45;;;;;;;6.70;5.50;;;18.40;1.00;;;;;;5094656;28;20468;-67
2023/06/09 05:02:12;;;;;;;6.63;5.00;;;18.50;1.00;;;;;;5098067;28;21024;-67
2023/06/09 05:04:39;;;;;;;5.83;4.50;;;18.50;1.00;;;;;;5098033;28;20461;-67
2023/06/09 05:07:06;;;;;;;6.83;5.97;;;18.60;1.00;;;;;;5097786;28;20541;-67
2023/06/09 05:09:34;;;;;;;6.43;4.93;;;18.60;1.00;;;;;;5097573;28;20468;-67
2023/06/09 05:12:01;;;;;;;7.20;4.83;;;18.70;1.00;;;;;;5097302;28;20484;-67
2023/06/09 05:14:28;;;;;;;5.27;4.57;;;18.80;1.00;;;;;;5097805;28;20492;-66
2023/06/09 05:16:55;;;;;;;4.80;4.30;;;18.90;1.00;;;;;;5097829;28;20489;-66
2023/06/09 05:19:22;;;;;;;7.07;4.80;;;18.90;1.00;;;;;;5097506;28;20850;-66
2023/06/09 05:21:49;;;;;;;4.70;4.30;;;18.90;1.00;;;;;;5097535;28;20543;-66
2023/06/09 05:24:16;;;;;;;5.13;4.63;;;19.00;1.00;;;;;;5097315;28;20488;-66
2023/06/09 05:26:45;;;;;;;7.63;5.10;;;19.00;1.00;;;;;;5097561;28;20564;-66
2023/06/09 05:29:12;;;;;;;8.33;4.07;;;19.10;1.00;;;;;;5097248;28;20493;-66
2023/06/09 05:31:39;;;;;;;7.57;3.83;;;19.10;1.00;;;;;;5097388;28;20540;-66
2023/06/09 05:34:06;;;;;;;7.47;4.50;;;19.20;1.00;;;;;;5097707;28;20461;-66
2023/06/09 05:36:33;;;;;;;4.90;4.40;;;19.20;1.00;;;;;;5097317;28;20487;-66
2023/06/09 05:39:00;;;;;;;8.53;4.33;;;19.20;1.00;;;;;;5097506;28;20587;-66
2023/06/09 05:41:27;;;;;;;7.40;4.67;;;19.30;1.00;;;;;;5097597;28;20461;-67
2023/06/09 05:43:57;;;;;;;6.90;5.53;;;19.30;1.00;;;;;;5097281;28;20548;-67
2023/06/09 05:46:26;;;;;;;5.37;4.83;;;19.40;1.00;;;;;;5097325;28;20461;-68
2023/06/09 05:48:52;;;;;;;5.00;4.17;;;19.40;1.00;;;;;;5097164;28;20462;-67
2023/06/09 05:51:19;;;;;;;6.47;5.30;;;19.50;1.00;;;;;;5096869;28;20464;-67
2023/06/09 05:53:47;;;;;;;4.63;4.03;;;19.50;1.00;;;;;;5097158;28;20978;-67
2023/06/09 05:56:16;;;;;;;6.23;4.00;;;19.60;1.00;;;;;;5096792;28;20531;-67
2023/06/09 05:58:44;;;;;;;4.73;4.10;;;19.60;1.00;;;;;;5096962;28;20465;-67
2023/06/09 06:01:15;;;;;;;3.90;3.47;;;19.70;1.00;;;;;;5096574;28;20784;-67
2023/06/09 06:03:42;;;;;;;5.63;3.53;;;19.80;1.00;;;;;;5096317;28;20500;-67
2023/06/09 06:06:09;;;;;;;7.00;3.70;;;19.90;1.00;;;;;;5096579;28;20859;-67
2023/06/09 06:08:39;;;;;;;6.73;4.00;;;20.00;1.00;;;;;;5096333;28;20472;-67
2023/06/09 06:11:06;;;;;;;4.43;4.03;;;20.10;1.00;;;;;;5096433;28;20752;-67
2023/06/09 06:13:32;;;;;;;5.67;3.80;;;20.20;1.00;;;;;;5096649;28;20890;-67
2023/06/09 06:16:00;;;;;;;9.20;3.77;;;20.30;1.00;;;;;;5095966;28;20561;-67
2023/06/09 06:18:28;;;;;;;4.73;4.07;;;20.30;1.00;;;;;;5096576;28;20463;-67
2023/06/09 06:20:55;;;;;;;4.33;3.93;;;20.40;1.00;;;;;;5096220;28;20554;-67
2023/06/09 06:23:22;;;;;;;7.87;4.03;;;20.50;1.00;;;;;;5096308;28;20489;-67
2023/06/09 06:25:50;;;;;;;5.40;4.53;;;20.40;1.00;;;;;;5096006;28;20457;-67
2023/06/09 06:28:17;;;;;;;4.70;3.70;;;20.50;1.00;;;;;;5096332;28;20464;-67
2023/06/09 06:30:44;;;;;;;5.73;4.27;;;20.50;1.00;;;;;;5096266;28;20544;-67
2023/06/09 06:33:11;;;;;;;7.13;4.97;;;20.50;1.00;;;;;;5096024;28;20454;-67
2023/06/09 06:35:39;;;;;;;8.97;4.53;;;20.50;1.00;;;;;;5095875;28;20453;-67
2023/06/09 06:38:06;;;;;;;6.27;4.17;;;20.50;1.00;;;;;;5095826;28;20449;-67
2023/06/09 06:40:33;;;;;;;4.20;3.80;;;20.50;1.00;;;;;;5095692;28;20457;-67
2023/06/09 06:43:00;;;;;;;7.10;4.33;;;20.50;1.00;;;;;;5095633;28;20487;-67
2023/06/09 06:45:27;;;;;;;6.40;3.70;;;20.60;1.00;;;;;;5095943;28;20954;-65
2023/06/09 06:47:54;;;;;;;5.83;4.00;;;20.60;1.00;;;;;;5095257;28;20487;-66
2023/06/09 06:50:22;;;;;;;5.73;4.00;;;20.70;1.00;;;;;;5095473;28;20457;-67
2023/06/09 06:52:50;;;;;;;6.33;5.30;;;20.70;1.00;;;;;;5095396;28;20841;-67
2023/06/09 06:55:17;;;;;;;7.43;4.30;;;20.70;1.00;;;;;;5096136;28;20835;-67
2023/06/09 06:57:44;;;;;;;7.33;4.20;;;20.80;1.00;;;;;;5095360;28;20905;-67
2023/06/09 07:00:14;;;;;;;7.40;3.67;;;20.90;1.00;;;;;;5095706;28;20544;-67
2023/06/09 07:02:41;;;;;;;4.73;3.60;;;20.90;1.00;;;;;;5095685;28;20453;-67
2023/06/09 07:05:09;;;;;;;6.50;3.53;;;20.90;1.00;;;;;;5095437;28;20457;-67
2023/06/09 07:07:36;;;;;;;5.40;3.20;;;21.00;1.00;;;;;;5095300;28;20477;-66
2023/06/09 07:10:07;;;;;;;5.27;3.50;;;21.00;1.00;;;;;;5095294;28;20453;-66
2023/06/09 07:12:34;;;;;;;4.20;3.30;;;21.00;1.00;;;;;;5095199;28;20492;-67
2023/06/09 07:15:01;;;;;;;5.73;3.50;;;21.10;1.00;;;;;;5095054;28;20460;-67
2023/06/09 07:17:28;;;;;;;8.20;3.63;;;21.20;1.00;;;;;;5094969;28;20955;-66
2023/06/09 07:19:55;;;;;;;5.00;3.87;;;21.20;1.00;;;;;;5095076;28;20461;-67
2023/06/09 07:22:22;;;;;;;7.90;3.47;;;21.30;1.00;;;;;;5094953;28;20450;-66
2023/06/09 07:24:49;;;;;;;7.00;4.00;;;21.30;1.00;;;;;;5095156;28;20558;-67
2023/06/09 07:27:17;;;;;;;6.33;3.73;;;21.30;1.00;;;;;;5095037;28;20477;-67
2023/06/09 07:29:44;;;;;;;6.20;4.47;;;21.30;1.00;;;;;;5095166;28;20453;-67
2023/06/09 07:32:11;;;;;;;4.47;3.60;;;21.30;1.00;;;;;;5095320;28;20461;-68
2023/06/09 07:34:38;;;;;;;4.60;4.07;;;21.40;1.00;;;;;;5094700;28;20453;-67
2023/06/09 07:37:06;;;;;;;5.40;3.97;;;21.40;1.00;;;;;;5094624;28;20449;-67
2023/06/09 07:39:36;;;;;;;6.57;3.80;;;21.40;1.00;;;;;;5094960;28;20461;-67
2023/06/09 07:42:03;;;;;;;4.43;3.70;;;21.40;1.00;;;;;;5095134;28;20530;-67
2023/06/09 07:44:31;;;;;;;5.83;3.90;;;21.40;1.00;;;;;;5094639;28;20458;-67
2023/06/09 07:46:58;;;;;;;6.33;3.63;;;21.50;1.00;;;;;;5094475;28;20575;-67
2023/06/09 07:49:26;;;;;;;8.90;4.30;;;21.50;1.00;;;;;;5094393;28;20913;-67
2023/06/09 07:51:53;;;;;;;3.97;3.53;;;21.60;1.00;;;;;;5094692;28;20556;-67
2023/06/09 07:54:21;;;;;;;5.93;3.53;;;21.60;1.00;;;;;;5094451;28;20544;-67
2023/06/09 07:56:49;;;;;;;6.37;3.93;;;21.70;1.00;;;;;;5094889;28;20485;-67
2023/06/09 07:59:16;;;;;;;5.90;4.40;;;21.80;1.00;;;;;;5094632;28;20463;-67
2023/06/09 08:01:46;;;;;;;5.67;3.27;;;21.90;1.00;;;;;;5094725;28;20472;-65
2023/06/09 08:04:12;;;;;;;11.50;8.53;;;21.90;1.00;;;;;;5094723;28;20552;-67
2023/06/09 08:06:39;;;;;;;4.33;3.37;;;22.00;1.00;;;;;;5094792;28;20491;-67
2023/06/09 08:09:08;;;;;;;5.33;3.90;;;22.20;1.00;;;;;;5094552;28;20536;-67
2023/06/09 08:11:35;;;;;;;4.00;3.60;;;22.30;1.00;;;;;;5094465;28;20493;-67
2023/06/09 08:14:02;;;;;;;4.60;3.83;;;22.40;1.00;;;;;;5094541;28;20741;-67
2023/06/09 08:16:30;;;;;;;9.50;3.97;;;22.50;1.00;;;;;;5094399;28;20488;-67
2023/06/09 08:18:58;;;;;;;6.07;3.80;;;22.60;1.00;;;;;;5094461;28;20453;-67
2023/06/09 08:21:25;;;;;;;6.43;3.87;;;22.70;1.00;;;;;;5094225;28;20552;-67
2023/06/09 08:23:52;;;;;;;5.43;4.00;;;22.80;1.00;;;;;;5094006;28;20456;-67
2023/06/09 08:26:19;;;;;;;4.97;3.70;;;22.90;1.00;;;;;;5094205;28;20457;-67
2023/06/09 08:28:46;;;;;;;4.97;3.17;;;23.00;1.00;;;;;;5094362;28;20477;-67
2023/06/09 08:31:13;;;;;;;10.53;3.60;;;23.00;1.00;;;;;;5094616;28;20790;-67
2023/06/09 08:33:39;;;;;;;3.97;3.57;;;23.00;1.00;;;;;;5094216;28;20464;-67
2023/06/09 08:36:09;;;;;;;4.30;3.90;;;23.00;1.00;;;;;;5097952;28;20453;-67
2023/06/09 08:38:36;;;;;;;4.90;3.93;;;23.10;1.00;;;;;;5098544;28;20449;-67
2023/06/09 08:41:07;;;;;;;3.50;3.20;;;23.10;1.00;;;;;;5098331;28;20549;-68
2023/06/09 08:43:34;;;;;;;5.07;3.30;;;23.10;1.00;;;;;;5099034;28;20540;-66
2023/06/09 08:46:04;;;;;;;6.90;3.33;;;23.10;1.00;;;;;;5098606;28;20457;-68
2023/06/09 08:48:32;;;;;;;10.37;6.77;;;23.10;1.00;;;;;;5098624;28;20563;-67
2023/06/09 08:51:00;;;;;;;4.00;3.50;;;23.20;1.00;;;;;;5098659;28;20778;-66
2023/06/09 08:53:30;;;;;;;6.70;3.37;;;23.30;1.00;;;;;;5098504;28;20452;-67
2023/06/09 08:55:59;;;;;;;8.00;3.23;;;23.40;1.00;;;;;;5098009;28;20453;-67
2023/06/09 08:58:26;;;;;;;7.90;3.90;;;23.50;1.00;;;;;;5098267;28;20461;-67
2023/06/09 09:00:54;;;;;;;6.17;3.53;;;23.60;1.00;;;;;;5098063;28;20453;-67
2023/06/09 09:03:22;;;;;;;4.40;3.70;;;23.70;1.00;;;;;;5098107;28;20467;-67
2023/06/09 09:05:49;;;;;;;6.60;3.57;;;23.80;1.00;;;;;;5097759;28;20465;-67
2023/06/09 09:08:16;;;;;;;16.00;4.33;;;23.90;1.00;;;;;;5097912;28;20538;-67
2023/06/09 09:10:45;;;;;;;6.90;3.47;;;24.10;1.00;;;;;;5098063;28;20780;-67
2023/06/09 09:13:13;;;;;;;7.10;4.03;;;24.20;1.00;;;;;;5097589;28;20484;-67
2023/06/09 09:15:49;;;;;;;4.10;3.70;;;24.30;1.00;;;;;;5098068;28;20488;-67
2023/06/09 09:18:17;;;;;;;5.00;3.60;;;24.50;1.00;;;;;;5097791;28;20900;-67
2023/06/09 09:20:44;;;;;;;29.60;26.07;;;24.60;1.00;;;;;;5097561;28;20457;-67
2023/06/09 09:23:11;;;;;;;15.20;12.33;;;24.70;1.00;;;;;;5097802;28;20461;-67
2023/06/09 09:25:38;;;;;;;7.50;4.80;;;24.80;1.00;;;;;;5097690;28;20453;-67
2023/06/09 09:28:08;;;;;;;4.40;3.83;;;25.00;1.00;;;;;;5097703;28;20473;-67
2023/06/09 09:30:45;;;;;;;11.47;4.13;;;25.10;1.00;;;;;;5097624;28;20547;-67
2023/06/09 09:33:13;;;;;;;10.43;4.30;;;25.20;1.00;;;;;;5097770;28;20484;-67
2023/06/09 09:35:41;;;;;;;7.47;4.07;;;25.30;1.00;;;;;;5097740;28;20457;-67
2023/06/09 09:38:13;;;;;;;6.40;4.53;;;25.30;1.00;;;;;;5097731;28;20471;-67
2023/06/09 09:40:45;;;;;;;8.87;4.33;;;25.40;1.00;;;;;;5097818;28;20441;-66
2023/06/09 09:43:14;;;;;;;5.13;4.17;;;25.50;1.00;;;;;;5097454;28;20468;-66
2023/06/09 09:45:44;;;;;;;6.80;4.00;;;25.50;1.00;;;;;;5096851;28;20932;-66
2023/06/09 09:48:12;;;;;;;6.40;3.83;;;25.50;1.00;;;;;;5097322;28;20969;-66
2023/06/09 09:50:39;;;;;;;5.43;3.97;;;25.60;1.00;;;;;;5097355;28;20457;-66
2023/06/09 09:53:07;;;;;;;5.13;3.90;;;25.60;1.00;;;;;;5097604;28;20569;-66
2023/06/09 09:55:35;;;;;;;4.00;3.70;;;25.70;1.00;;;;;;5097340;28;20463;-66
2023/06/09 09:58:06;;;;;;;4.50;4.10;;;25.80;1.00;;;;;;5097746;28;20881;-66
2023/06/09 10:00:36;;;;;;;11.10;4.80;;;25.80;1.00;;;;;;5096714;28;20441;-66
2023/06/09 10:03:16;;;;;;;5.40;4.03;;;25.80;1.00;;;;;;5096710;28;20464;-66
2023/06/09 10:05:45;;;;;;;4.70;4.03;;;25.90;1.00;;;;;;5096571;28;20452;-66
2023/06/09 10:08:16;;;;;;;4.40;4.00;;;26.00;1.00;;;;;;5096195;28;20580;-66
2023/06/09 10:10:43;;;;;;;9.73;4.67;;;26.10;1.00;;;;;;5097005;28;20453;-66
2023/06/09 10:13:11;;;;;;;6.87;5.03;;;26.10;1.00;;;;;;5096211;28;20497;-66
2023/06/09 10:15:42;;;;;;;6.03;4.33;;;26.10;1.00;;;;;;5096566;28;20540;-66
2023/06/09 10:18:10;;;;;;;6.13;3.73;;;26.10;1.00;;;;;;5096836;28;20453;-67
2023/06/09 10:20:37;;;;;;;5.07;4.57;;;26.10;1.00;;;;;;5096554;28;20485;-66
2023/06/09 10:23:05;;;;;;;5.00;4.50;;;26.20;1.00;;;;;;5096507;28;20453;-67
2023/06/09 10:25:33;;;;;;;6.03;4.40;;;26.30;1.00;;;;;;5095916;28;20957;-67
2023/06/09 10:28:00;;;;;;;6.50;4.67;;;26.40;1.00;;;;;;5096485;28;20520;-67
2023/06/09 10:30:27;;;;;;;4.70;4.30;;;26.40;1.00;;;;;;5096484;28;20998;-67
2023/06/09 10:33:00;;;;;;;3.80;3.50;;;26.50;1.00;;;;;;5096205;28;20553;-67
2023/06/09 10:35:29;;;;;;;4.80;4.27;;;26.50;1.00;;;;;;5095866;28;20534;-67
2023/06/09 10:37:58;;;;;;;5.70;4.03;;;26.60;1.00;;;;;;5095984;28;20587;-67
2023/06/09 10:40:33;;;;;;;4.27;3.80;;;26.70;1.00;;;;;;5096070;28;20461;-67
2023/06/09 10:43:23;;;;;;;5.90;4.10;;;26.80;1.00;;;;;;5095885;28;20857;-67
2023/06/09 10:45:52;;;;;;;5.00;3.13;;;26.90;1.00;;;;;;5095970;28;20448;-66
2023/06/09 10:48:46;;;;;;;7.00;4.20;;;27.00;1.00;;;;;;5095862;28;20576;-68
2023/06/09 10:51:37;;;;;;;23.17;20.87;;;27.20;1.00;;;;;;5095927;28;20533;-67
2023/06/09 10:54:22;;;;;;;3.80;3.53;;;27.20;1.00;;;;;;5095713;28;20464;-67
2023/06/09 10:56:53;;;;;;;5.40;3.73;;;27.30;1.00;;;;;;5095469;28;20453;-67
2023/06/09 10:59:53;;;;;;;5.67;3.60;;;27.30;1.00;;;;;;5095507;28;20441;-67
2023/06/09 11:02:23;;;;;;;10.63;4.50;;;27.40;1.00;;;;;;5095806;28;20512;-67
2023/06/09 11:04:52;;;;;;;6.53;4.00;;;27.50;1.00;;;;;;5095984;28;20764;-65
2023/06/09 11:07:21;;;;;;;5.23;3.83;;;27.60;1.00;;;;;;5095787;28;20834;-67
2023/06/09 11:10:33;;;;;;;4.37;3.97;;;27.60;1.00;;;;;;5095440;28;20488;-65
2023/06/09 11:13:03;;;;;;;4.13;3.83;;;27.70;1.00;;;;;;5094856;28;20924;-67
2023/06/09 11:15:57;;;;;;;4.40;4.00;;;27.90;1.00;;;;;;5095282;28;20505;-65
2023/06/09 11:18:24;;;;;;;6.67;4.07;;;28.00;1.00;;;;;;5095335;28;20534;-65
2023/06/09 11:21:10;;;;;;;4.40;4.10;;;28.40;1.00;;;;;;5095459;28;20453;-66
2023/06/09 11:24:04;;;;;;;9.70;4.03;;;29.10;1.00;;;;;;5095430;28;20438;-66
2023/06/09 11:26:33;;;;;;;4.70;4.30;;;30.10;1.00;;;;;;5095062;28;20938;-66
2023/06/09 11:29:03;;;;;;;4.17;3.73;;;31.10;1.00;;;;;;5094734;28;20977;-66
2023/06/09 11:31:30;;;;;;;4.10;3.80;;;31.90;1.00;;;;;;5094822;28;20518;-67
2023/06/09 11:33:57;;;;;;;4.30;3.63;;;32.40;1.00;;;;;;5094692;28;20969;-66
2023/06/09 11:36:29;;;;;;;4.30;3.60;;;33.10;1.00;;;;;;5095040;28;20464;-66
2023/06/09 11:39:06;;;;;;;7.13;4.07;;;33.80;1.00;;;;;;5094677;28;20444;-66
2023/06/09 11:41:34;;;;;;;5.27;3.50;;;34.60;1.00;;;;;;5094654;28;20441;-66
2023/06/09 11:44:01;;;;;;;4.60;3.83;;;35.10;1.00;;;;;;5094605;28;20898;-66
2023/06/09 11:46:28;;;;;;;4.23;3.83;;;35.40;1.00;;;;;;5094630;28;20551;-66
2023/06/09 11:49:07;;;;;;;7.43;4.10;;;35.70;1.00;;;;;;5094555;28;20477;-66
2023/06/09 11:51:54;;;;;;;5.03;3.87;;;36.00;1.00;;;;;;5094757;28;20851;-66
2023/06/09 11:54:21;;;;;;;4.87;3.90;;;36.30;1.00;;;;;;5094212;28;20464;-66
2023/06/09 11:56:49;;;;;;;7.73;4.00;;;36.50;1.00;;;;;;5094381;28;20540;-66
2023/06/09 11:59:18;;;;;;;3.80;3.50;;;36.60;1.00;;;;;;5094278;28;20879;-66
2023/06/09 12:01:47;;;;;;;4.97;4.50;;;36.80;1.00;;;;;;5094610;28;20769;-66
2023/06/09 12:04:14;;;;;;;4.97;4.57;;;36.90;1.00;;;;;;5094074;28;20615;-66
2023/06/09 12:06:41;;;;;;;3.90;3.60;;;37.00;1.00;;;;;;5093739;28;20495;-66
2023/06/09 12:09:21;;;;;;;5.87;3.70;;;37.40;1.00;;;;;;5094197;28;20529;-66
2023/06/09 12:11:54;;;;;;;4.20;3.80;;;37.60;1.00;;;;;;5094382;28;20489;-66
2023/06/09 12:14:22;;;;;;;5.50;3.90;;;37.80;1.00;;;;;;5094268;28;20453;-65
2023/06/09 12:16:50;;;;;;;5.97;4.10;;;37.90;1.00;;;;;;5094778;28;20551;-66
2023/06/09 12:19:18;;;;;;;4.23;3.83;;;38.00;1.00;;;;;;5094759;28;20456;-66
2023/06/09 12:21:48;;;;;;;4.23;3.87;;;38.20;1.00;;;;;;5094309;28;20453;-66
2023/06/09 12:24:15;;;;;;;4.73;4.33;;;38.20;1.00;;;;;;5094265;28;20480;-66
2023/06/09 12:26:47;;;;;;;3.80;3.47;;;38.20;1.00;;;;;;5094451;28;20453;-66
2023/06/09 12:29:14;;;;;;;4.63;4.23;;;38.20;1.00;;;;;;5094437;28;20560;-66
2023/06/09 12:31:49;;;;;;;4.70;4.00;;;38.40;1.00;;;;;;5094209;28;20544;-66
2023/06/09 12:34:28;;;;;;;4.43;4.10;;;38.50;1.00;;;;;;5094270;28;20551;-66
2023/06/09 12:36:55;;;;;;;4.27;3.87;;;38.30;1.00;;;;;;5094538;28;20597;-66
2023/06/09 12:39:24;;;;;;;6.17;3.90;;;38.20;1.00;;;;;;5094118;28;20453;-66
2023/06/09 12:41:52;;;;;;;4.10;3.80;;;38.20;1.00;;;;;;5094095;28;20914;-66
2023/06/09 12:44:20;;;;;;;4.50;4.10;;;38.30;1.00;;;;;;5094378;28;20533;-66
2023/06/09 12:46:54;;;;;;;4.30;3.80;;;38.40;1.00;;;;;;5094345;28;20457;-66
2023/06/09 12:49:28;;;;;;;4.77;4.37;;;38.60;1.00;;;;;;5094144;28;20491;-66
2023/06/09 12:51:55;;;;;;;4.93;3.70;;;38.70;1.00;;;;;;5094380;28;20528;-66
2023/06/09 12:54:22;;;;;;;5.20;4.00;;;38.70;1.00;;;;;;5093906;28;20991;-66
2023/06/09 12:56:49;;;;;;;9.07;4.23;;;38.60;1.00;;;;;;5094401;28;20450;-66
2023/06/09 12:59:18;;;;;;;4.10;3.70;;;38.60;1.00;;;;;;5094086;28;20540;-66
2023/06/09 13:01:47;;;;;;;4.53;4.03;;;38.60;1.00;;;;;;5093950;28;20993;-66
2023/06/09 13:04:15;;;;;;;4.57;4.10;;;38.60;1.00;;;;;;5093372;28;20499;-66